ADDS METAR Data INFO
IDs: Format: Raw Decoded Include TAF

Data at: 1717 UTC 23 Oct 2017

KBJC 231647Z 10010KT 30SM BKN022 OVC120 05/M01 A3047
KBJC 231549Z 10010KT 30SM BKN015 OVC120 05/00 A3047
KBJC 231449Z 09008KT 50SM BKN018 OVC200 05/00 A3048
KBJC 231411Z 07008KT 50SM BKN018 OVC200 05/00 A3044
KBJC 231350Z 07009G19KT 50SM FEW040 SCT080 BKN200 05/00 A3041
KBJC 231254Z 07022G28KT 30SM FEW080 SCT120 BKN200 15/M02 A3031 RMK WSHFT 51 FROPA
KBJC 231247Z 33015G19KT 30SM FEW080 SCT120 BKN200 15/M03 A3029
KBJC 231147Z 31008KT 30SM FEW080 SCT120 BKN200 15/M02 A3026
KBJC 231129Z AUTO 27014G22KT 10SM CLR 16/M02 A3025 RMK AO2
KBJC 231111Z AUTO 30005KT 10SM SCT090 16/M02 A3024 RMK AO2
KBJC 231050Z AUTO 00000KT 10SM SCT090 15/M02 A3022 RMK AO2
KBJC 231031Z AUTO 01005KT 10SM SCT090 15/M02 A3022 RMK AO2
KBJC 231011Z AUTO 29009G18KT 10SM SCT090 16/M02 A3022 RMK AO2
KBJC 230946Z AUTO 30017G36KT 271V331 10SM CLR 16/M02 A3022 RMK AO2
KBJC 230929Z AUTO 30019G26KT 10SM CLR 17/M03 A3022 RMK AO2
KBJC 230911Z AUTO 26023G29KT 10SM CLR 16/M03 A3019 RMK AO2
KBJC 230847Z AUTO 28018G30KT 10SM CLR 16/M03 A3022 RMK AO2
KBJC 230830Z AUTO 29015G23KT 10SM CLR 16/M03 A3021 RMK AO2
KBJC 230811Z AUTO 28023G30KT 10SM CLR 16/M03 A3019 RMK AO2
KBJC 230751Z AUTO 31013G31KT 10SM CLR 17/M03 A3019 RMK AO2
KBJC 230728Z AUTO 26022G32KT 10SM CLR 16/M04 A3019 RMK AO2
KBJC 230706Z AUTO 28010G21KT 10SM CLR 16/M04 A3020 RMK AO2
KBJC 230652Z AUTO 28014G26KT 261V341 10SM CLR 16/M04 A3019 RMK AO2
KBJC 230630Z AUTO 30012G18KT 10SM CLR 17/M04 A3019 RMK AO2
KBJC 230607Z AUTO 25013G37KT 10SM CLR 17/M04 A3019 RMK AO2
KBJC 230549Z AUTO 28013G19KT 10SM CLR 17/M03 A3019 RMK AO2
KBJC 230531Z AUTO 28013G17KT 10SM CLR 17/M03 A3017 RMK AO2
KBJC 230507Z AUTO 27008G23KT 221V281 10SM CLR 17/M03 A3016 RMK AO2
KBJC 230450Z AUTO 28020G38KT 10SM CLR 18/M04 A3017 RMK AO2
KBJC 230427Z AUTO 30021G29KT 271V331 10SM CLR 17/M04 A3017 RMK AO2
KBJC 230411Z AUTO 29012G33KT 10SM CLR 17/M04 A3018 RMK AO2
KBJC 230346Z 29019G25KT 20SM FEW090 SCT150 BKN220 19/M04 A3015 RMK LAST WX
KBJC 230246Z 23022G35KT 20SM FEW090 SCT150 BKN220 19/M04 A3015
KBJC 230115Z 27020G25KT 30SM FEW090 SCT150 BKN220 18/M04 A3014
KBJC 230047Z 26012KT 30SM FEW090 SCT150 BKN220 18/M05 A3013
KBJC 222347Z 29020G27KT 50SM FEW090 SCT120 BKN200 19/M06 A3011
KBJC 222246Z 27027G37KT 50SM FEW090 SCT120 BKN200 19/M07 A3011
KBJC 222147Z 28012KT 70SM SCT120 BKN200 18/M05 A3013
KBJC 222045Z 28008KT 70SM SCT120 BKN200 17/M05 A3013
KBJC 221950Z 26009G16KT 70SM FEW090 BKN200 18/M05 A3014
KBJC 221846Z 28010KT 50SM FEW150 SCT200 19/M03 A3017
KBJC 221745Z 28004KT 50SM SCT180 18/M03 A3016
KBJC 221649Z 12004KT 50SM SCT120 15/M03 A3018
KBJC 221545Z 00000KT 50SM SCT080 BKN120 12/M04 A3019
KBJC 221445Z VRB03KT 30SM BKN080 08/M06 A3017
KBJC 221345Z 31003KT 30SM BKN080 05/M08 A3017
KBJC 221245Z 00000KT 30SM SCT120 05/M09 A3015
KBJC 221152Z 29008KT 30SM SKC 07/M08 A3014
KBJC 221151Z AUTO 30006KT 10SM CLR 07/M08 A3014 RMK AO2
KBJC 221128Z AUTO 27008KT 10SM CLR 07/M08 A3013 RMK AO2
KBJC 221108Z AUTO 25009KT 10SM CLR 10/M08 A3014 RMK AO2
KBJC 221047Z AUTO 23005KT 10SM CLR 08/M08 A3013 RMK AO2
KBJC 221030Z AUTO 26012KT 10SM CLR 09/M09 A3013 RMK AO2
KBJC 221006Z AUTO 28015G19KT 10SM CLR 09/M10 A3013 RMK AO2
KBJC 220951Z AUTO 28016KT 10SM CLR 09/M10 A3013 RMK AO2
KBJC 220928Z AUTO 26017G24KT 10SM CLR 10/M10 A3014 RMK AO2
KBJC 220910Z AUTO 25018G30KT 10SM CLR 10/M10 A3014 RMK AO2
KBJC 220847Z AUTO 25023G31KT 10SM CLR 08/M10 A3014 RMK AO2
KBJC 220830Z AUTO 21010G15KT 10SM CLR 08/M10 A3014 RMK AO2
KBJC 220807Z AUTO 26014G23KT 10SM CLR 09/M10 A3013 RMK AO2
KBJC 220751Z AUTO 26018G25KT 10SM CLR 09/M11 A3013 RMK AO2
KBJC 220729Z AUTO 28018G28KT 10SM CLR 09/M10 A3013 RMK AO2
KBJC 220711Z AUTO 28015G21KT 10SM CLR 08/M10 A3013 RMK AO2
KBJC 220647Z AUTO 28017G22KT 10SM CLR 07/M10 A3014 RMK AO2
KBJC 220629Z AUTO 24008KT 10SM CLR 06/M10 A3014 RMK AO2
KBJC 220611Z AUTO 24006KT 10SM CLR 07/M10 A3014 RMK AO2
KBJC 220545Z AUTO 27015G23KT 10SM CLR 08/M10 A3014 RMK AO2
KBJC 220526Z AUTO 27024G32KT 10SM CLR 08/M10 A3014 RMK AO2